Sierra City, CA

10:31 PM PDT on August 21, 2014 (GMT -0700)
West Willow | Change Station
CLOSE
Current Station
Personal Weather Station
Location: Sierraville, CA
Elevation: 5100 ft
Nearby Weather Stations

Elev 5100 ft 39.58 °N, 120.38 °W | Updated 12 minutes ago

Clear
Clear
60.7 °F
Feels Like 60.7 °F
N
0.0
Wind Variable Wind from SE
Gusts 3.0 mph

Today
High -- | Low -- °F
--% Chance of Precip.
Yesterday
High -- | Low -- °F
Precip. -- in
6:20 AM 7:49 PM
Waning Crescent, 10% visible
Pressure 29.92 in
Visibility 10.0 miles
Clouds Clear
Dew Point 41 °F
Humidity 48%
Rainfall 0.00 in
Snow Depth Not available.
UV 0 out of 12
Pollen 7.30 out of 12
Ozone Moderate
Flu Activity Not available.
METAR KBLU 220452Z AUTO 09003KT 10SM CLR 17/03 A3016 RMK AO2 SLP130 T01670033

More Conditions Fewer Conditions

Pressure 29.92 in
Visibility 10.0 miles
Clouds Clear
Dew Point 41 °F
Humidity 48%
Rainfall 0.00 in
Snow Depth Not available.
UV 0 out of 12
Pollen 7.30 out of 12
Ozone Moderate
Flu Activity Not available.
METAR KBLU 220452Z AUTO 09003KT 10SM CLR 17/03 A3016 RMK AO2 SLP130 T01670033

More Conditions Fewer Conditions

10-Day Weather Forecast

Almanac

Astronomy

Aug. 21, 2014 Rise Set
Actual Time 6:20 AM PDT 7:49 PM PDT
Civil Twilight 5:52 AM PDT 8:18 PM PDT
Nautical Twilight 5:18 AM PDT 8:52 PM PDT
Astronomical Twilight 4:42 AM PDT 9:28 PM PDT
Moon 2:55 AM PDT (8/21) 5:21 PM PDT (8/21)
Length of Visible Light 14h 25m
Length of Day
13h 29m
Tomorrow will be 2m 22s shorter.
Waning Crescent, 10% of the Moon is Illuminated
Aug 22
Waning Crescent
Aug 25
New
Sep 2
First Quarter
Sep 8
Full
Sep 15
Last Quarter

Yesterday's Extremes

State Highs State Lows

Community

WunderPhotos

Upload Photos

1,746,131 photos uploaded!

Nearby

Air Quality

  Air Quality AQ Index Pollutant
Yesterday Good
OZONE
Current Moderate
OZONE
Thursday Moderate
OZONE
Friday Moderate
OZONE
Saturday Moderate
OZONE
Sunday Moderate
OZONE
Monday Moderate
OZONE
Tuesday Moderate
OZONE

Snow Depth

Station Depth Elevation
Tahoe City Cross 0 in 6750 ft
Fallen Leaf 0 in 6300 ft
Echo Peak 1 in 7800 ft
Hagan's Meadow 0 in 8000 ft
Forestdale Creek 0 in 8029 ft

Earthquake Activity

City Distance Mag. Time & Date
Berkeley, California 145 miles 2.6 7:41 PM PDT
2014-08-16
Minimum magnitude displayed is 2.5.

Coastal Water Temperatures

Place Temperature
No Stations Reporting

Nearby Weather Stations